createdAt,value
2022-09-22T00:00:40.380Z,-102.32
2022-09-22T00:01:37.439Z,-102.34
2022-09-22T00:02:37.306Z,-102.31
2022-09-22T00:03:37.298Z,-102.32
2022-09-22T00:04:37.350Z,-102.35
2022-09-22T00:05:37.276Z,-102.24
2022-09-22T00:06:37.289Z,-102.35
2022-09-22T00:07:37.281Z,-102.30
2022-09-22T00:08:37.288Z,-102.35
2022-09-22T00:09:37.259Z,-102.30
2022-09-22T00:10:37.188Z,-102.33
2022-09-22T00:11:37.199Z,-102.39
2022-09-22T00:12:37.167Z,-102.43
2022-09-22T00:13:37.151Z,-102.39
2022-09-22T00:14:37.260Z,-102.41
2022-09-22T00:15:37.161Z,-102.06
2022-09-22T00:16:37.350Z,-101.81
2022-09-22T00:17:37.115Z,-101.65
2022-09-22T00:18:37.084Z,-101.43
2022-09-22T00:19:40.110Z,-101.39
2022-09-22T00:20:40.135Z,-100.96
2022-09-22T00:21:37.049Z,-100.90
2022-09-22T00:22:37.096Z,-100.91
2022-09-22T00:23:37.060Z,-100.72
2022-09-22T00:24:37.050Z,-100.81
2022-09-22T00:25:37.103Z,-100.79
2022-09-22T00:26:36.994Z,-100.78
2022-09-22T00:27:37.043Z,-100.75
2022-09-22T00:28:36.959Z,-100.69
2022-09-22T00:29:36.939Z,-100.72
2022-09-22T00:30:36.933Z,-100.77
2022-09-22T00:31:36.953Z,-100.74
2022-09-22T00:32:36.983Z,-100.67
2022-09-22T00:33:36.883Z,-100.58
2022-09-22T00:34:36.944Z,-100.69
2022-09-22T00:35:36.896Z,-100.73
2022-09-22T00:36:36.851Z,-100.68
2022-09-22T00:37:36.827Z,-100.59
2022-09-22T00:38:36.911Z,-100.76
2022-09-22T00:39:39.823Z,-100.85
2022-09-22T00:40:39.848Z,-100.85
2022-09-22T00:41:36.785Z,-100.60
2022-09-22T00:42:36.916Z,-100.60
2022-09-22T00:43:36.789Z,-100.60
2022-09-22T00:44:36.795Z,-100.60
2022-09-22T00:45:36.754Z,-100.58
2022-09-22T00:46:36.807Z,-100.46
2022-09-22T00:47:36.697Z,-100.29
2022-09-22T00:48:36.715Z,-98.85
2022-09-22T00:49:36.682Z,-98.81
2022-09-22T00:50:36.710Z,-98.57
2022-09-22T00:51:36.687Z,-98.39
2022-09-22T00:52:36.635Z,-98.40
2022-09-22T00:53:36.637Z,-98.24
2022-09-22T00:54:36.598Z,-98.13
2022-09-22T00:55:36.629Z,-98.08
2022-09-22T00:56:36.599Z,-97.89
2022-09-22T00:57:36.569Z,-97.80
2022-09-22T00:58:36.549Z,-97.68
2022-09-22T00:59:39.592Z,-97.60
2022-09-22T01:00:39.634Z,-97.34
2022-09-22T01:01:36.586Z,-97.21
2022-09-22T01:02:36.504Z,-97.16
2022-09-22T01:03:36.491Z,-97.05
2022-09-22T01:04:36.540Z,-96.99
2022-09-22T01:05:36.453Z,-95.56
2022-09-22T01:06:36.461Z,-95.55
2022-09-22T01:07:36.422Z,-95.42
2022-09-22T01:08:36.421Z,-95.39
2022-09-22T01:09:36.405Z,-95.29
2022-09-22T01:10:36.454Z,-95.31
2022-09-22T01:11:36.404Z,-95.23
2022-09-22T01:12:36.383Z,-95.07
2022-09-22T01:13:36.362Z,-94.97
2022-09-22T01:14:36.400Z,-94.88
2022-09-22T01:15:36.398Z,-94.76
2022-09-22T01:16:36.373Z,-94.67
2022-09-22T01:17:36.384Z,-94.56
2022-09-22T01:18:36.284Z,-94.45
2022-09-22T01:19:39.293Z,-94.45
2022-09-22T01:20:39.285Z,-94.10
2022-09-22T01:21:36.238Z,-94.02
2022-09-22T01:22:36.224Z,-94.04
2022-09-22T01:23:36.319Z,-93.99
2022-09-22T01:24:36.249Z,-92.61
2022-09-22T01:25:36.176Z,-92.60
2022-09-22T01:26:36.176Z,-92.52
2022-09-22T01:27:36.168Z,-92.43
2022-09-22T01:28:36.154Z,-92.38
2022-09-22T01:29:36.166Z,-92.30
2022-09-22T01:30:36.141Z,-92.34
2022-09-22T01:31:36.174Z,-92.16
2022-09-22T01:32:36.088Z,-92.15
2022-09-22T01:33:36.118Z,-92.12
2022-09-22T01:34:36.107Z,-92.15
2022-09-22T01:35:36.059Z,-92.00
2022-09-22T01:36:36.039Z,-91.92
2022-09-22T01:37:36.020Z,-92.04
2022-09-22T01:38:36.067Z,-92.01
2022-09-22T01:39:39.051Z,-91.90
2022-09-22T01:40:39.044Z,-91.73
2022-09-22T01:41:35.968Z,-91.77
2022-09-22T01:42:35.957Z,-91.81
2022-09-22T01:43:35.939Z,-91.75
2022-09-22T01:44:35.921Z,-91.72
2022-09-22T01:45:35.948Z,-91.77
2022-09-22T01:46:35.966Z,-91.57
2022-09-22T01:47:35.900Z,-91.45
2022-09-22T01:48:35.862Z,-91.47
2022-09-22T01:49:35.889Z,-91.35
2022-09-22T01:50:35.849Z,-89.96
2022-09-22T01:51:35.863Z,-89.91
2022-09-22T01:52:35.827Z,-89.88
2022-09-22T01:53:35.800Z,-89.76
2022-09-22T01:54:35.772Z,-89.72
2022-09-22T01:55:35.763Z,-89.73
2022-09-22T01:56:35.796Z,-89.59
2022-09-22T01:57:35.742Z,-89.53
2022-09-22T01:58:35.736Z,-89.46
2022-09-22T01:59:38.744Z,-89.37
2022-09-22T02:00:38.721Z,-89.18
2022-09-22T02:01:35.836Z,-89.10
2022-09-22T02:02:35.985Z,-89.06
2022-09-22T02:03:35.684Z,-89.13
2022-09-22T02:04:35.676Z,-89.02
2022-09-22T02:05:35.619Z,-88.94
2022-09-22T02:06:35.639Z,-88.84
2022-09-22T02:07:35.615Z,-88.81
2022-09-22T02:08:35.636Z,-88.70
2022-09-22T02:09:35.566Z,-88.85
2022-09-22T02:10:35.557Z,-88.93
2022-09-22T02:11:35.541Z,-88.86
2022-09-22T02:12:35.546Z,-88.79
2022-09-22T02:13:35.540Z,-88.78
2022-09-22T02:14:35.541Z,-88.83
2022-09-22T02:15:35.520Z,-87.42
2022-09-22T02:16:35.527Z,-87.48
2022-09-22T02:17:35.679Z,-88.67
2022-09-22T02:18:35.458Z,-87.40
2022-09-22T02:19:38.488Z,-87.31
2022-09-22T02:20:38.449Z,-87.15
2022-09-22T02:21:35.448Z,-87.10
2022-09-22T02:22:35.397Z,-87.12
2022-09-22T02:23:35.407Z,-87.09
2022-09-22T02:24:35.429Z,-87.14
2022-09-22T02:25:35.410Z,-87.05
2022-09-22T02:26:35.373Z,-86.98
2022-09-22T02:27:35.321Z,-86.90
2022-09-22T02:28:35.302Z,-86.89
2022-09-22T02:29:35.301Z,-86.78
2022-09-22T02:30:35.353Z,-86.73
2022-09-22T02:31:35.356Z,-86.73
2022-09-22T02:32:35.261Z,-86.71
2022-09-22T02:33:38.229Z,-86.73
2022-09-22T02:34:35.236Z,-86.67
2022-09-22T02:35:35.232Z,-86.64
2022-09-22T02:36:35.193Z,-86.70
2022-09-22T02:37:35.262Z,-86.63
2022-09-22T02:38:35.173Z,-86.57
2022-09-22T02:39:38.182Z,-86.54
2022-09-22T02:40:38.226Z,-86.51
2022-09-22T02:41:35.133Z,-86.36
2022-09-22T02:42:35.183Z,-86.33
2022-09-22T02:43:35.142Z,-86.32
2022-09-22T02:44:35.144Z,-86.35
2022-09-22T02:45:35.103Z,-84.96
2022-09-22T02:46:35.132Z,-84.91
2022-09-22T02:47:35.068Z,-84.98
2022-09-22T02:48:35.041Z,-84.92
2022-09-22T02:49:35.021Z,-84.92
2022-09-22T02:50:35.096Z,-84.91
2022-09-22T02:51:35.026Z,-84.85
2022-09-22T02:52:34.984Z,-84.83
2022-09-22T02:53:34.966Z,-84.77
2022-09-22T02:54:34.998Z,-84.86
2022-09-22T02:55:34.947Z,-84.67
2022-09-22T02:56:34.956Z,-84.66
2022-09-22T02:57:34.932Z,-84.77
2022-09-22T02:58:34.908Z,-84.61
2022-09-22T02:59:37.957Z,-84.50
2022-09-22T03:00:37.914Z,-84.43
2022-09-22T03:01:34.993Z,-84.45
2022-09-22T03:02:34.849Z,-84.45
2022-09-22T03:03:34.861Z,-84.41
2022-09-22T03:04:34.865Z,-84.39
2022-09-22T03:05:34.808Z,-84.34
2022-09-22T03:06:34.836Z,-84.42
2022-09-22T03:07:34.841Z,-84.26
2022-09-22T03:08:34.788Z,-84.26
2022-09-22T03:09:34.769Z,-84.27
2022-09-22T03:10:34.758Z,-84.22
2022-09-22T03:11:34.729Z,-84.17
2022-09-22T03:12:34.710Z,-84.08
2022-09-22T03:13:34.750Z,-82.79
2022-09-22T03:14:34.701Z,-82.78
2022-09-22T03:15:34.746Z,-82.79
2022-09-22T03:16:34.682Z,-84.04
2022-09-22T03:17:34.690Z,-84.10
2022-09-22T03:18:34.721Z,-84.08
2022-09-22T03:19:37.641Z,-84.03
2022-09-22T03:20:37.650Z,-82.79
2022-09-22T03:21:34.631Z,-82.81
2022-09-22T03:22:34.611Z,-84.10
2022-09-22T03:23:34.691Z,-84.09
2022-09-22T03:24:34.565Z,-84.10
2022-09-22T03:25:34.633Z,-84.01
2022-09-22T03:26:34.534Z,-84.07
2022-09-22T03:27:34.553Z,-84.09
2022-09-22T03:28:34.574Z,-84.08
2022-09-22T03:29:34.573Z,-84.09
2022-09-22T03:30:34.544Z,-82.72
2022-09-22T03:31:34.475Z,-82.68
2022-09-22T03:32:34.454Z,-82.61
2022-09-22T03:33:34.557Z,-82.53
2022-09-22T03:34:34.452Z,-82.50
2022-09-22T03:35:34.452Z,-82.43
2022-09-22T03:36:34.445Z,-82.37
2022-09-22T03:37:34.406Z,-82.40
2022-09-22T03:38:34.409Z,-82.40
2022-09-22T03:39:37.415Z,-82.31
2022-09-22T03:40:37.452Z,-82.10
2022-09-22T03:41:34.385Z,-82.02
2022-09-22T03:42:34.367Z,-82.16
2022-09-22T03:43:34.335Z,-82.18
2022-09-22T03:44:34.348Z,-82.05
2022-09-22T03:45:34.331Z,-82.07
2022-09-22T03:46:34.371Z,-81.99
2022-09-22T03:47:34.350Z,-82.00
2022-09-22T03:48:34.267Z,-81.92
2022-09-22T03:49:34.258Z,-81.88
2022-09-22T03:50:34.238Z,-81.87
2022-09-22T03:51:34.272Z,-81.91
2022-09-22T03:52:34.249Z,-81.87
2022-09-22T03:53:34.290Z,-80.54
2022-09-22T03:54:34.226Z,-80.61
2022-09-22T03:55:34.199Z,-81.88
2022-09-22T03:56:34.170Z,-81.91
2022-09-22T03:57:34.199Z,-81.99
2022-09-22T03:58:34.150Z,-81.96
2022-09-22T03:59:37.173Z,-81.99
2022-09-22T04:00:37.125Z,-81.78
2022-09-22T04:01:34.148Z,-81.87
2022-09-22T04:02:34.178Z,-81.99
2022-09-22T04:03:34.122Z,-82.12
2022-09-22T04:04:34.074Z,-82.25
2022-09-22T04:05:34.174Z,-82.18
2022-09-22T04:06:34.042Z,-82.20
2022-09-22T04:07:34.085Z,-82.23
2022-09-22T04:08:34.161Z,-82.37
2022-09-22T04:09:34.047Z,-82.39
2022-09-22T04:10:34.002Z,-82.31
2022-09-22T04:11:34.003Z,-82.44
2022-09-22T04:12:33.964Z,-82.44
2022-09-22T04:13:33.978Z,-82.56
2022-09-22T04:14:34.045Z,-82.46
2022-09-22T04:15:33.933Z,-82.39
2022-09-22T04:16:34.074Z,-82.40
2022-09-22T04:17:33.960Z,-82.49
2022-09-22T04:18:34.035Z,-82.40
2022-09-22T04:19:36.857Z,-82.35
2022-09-22T04:20:36.895Z,-82.23
2022-09-22T04:21:33.840Z,-82.24
2022-09-22T04:22:33.912Z,-82.26
2022-09-22T04:23:33.901Z,-82.30
2022-09-22T04:24:33.925Z,-82.31
2022-09-22T04:25:33.888Z,-82.27
2022-09-22T04:26:33.807Z,-82.20
2022-09-22T04:27:33.847Z,-82.09
2022-09-22T04:28:33.766Z,-82.08
2022-09-22T04:29:33.725Z,-82.11
2022-09-22T04:30:33.815Z,-82.05
2022-09-22T04:31:33.746Z,-82.04
2022-09-22T04:32:33.813Z,-81.95
2022-09-22T04:33:33.677Z,-81.97
2022-09-22T04:34:33.755Z,-81.96
2022-09-22T04:35:33.716Z,-82.02
2022-09-22T04:36:33.669Z,-82.06
2022-09-22T04:37:33.715Z,-81.84
2022-09-22T04:38:34.258Z,-80.59
2022-09-22T04:39:36.683Z,-80.60
2022-09-22T04:40:36.780Z,-80.44
2022-09-22T04:41:33.645Z,-80.40
2022-09-22T04:42:33.783Z,-80.40
2022-09-22T04:43:33.722Z,-80.41
2022-09-22T04:44:35.450Z,-80.42
2022-09-22T04:45:38.810Z,-80.42
2022-09-22T04:46:34.585Z,-80.39
2022-09-22T04:47:33.618Z,-80.42
2022-09-22T04:48:33.588Z,-80.41
2022-09-22T04:49:33.491Z,-80.44
2022-09-22T04:50:33.481Z,-80.38
2022-09-22T04:51:33.520Z,-80.24
2022-09-22T04:52:33.420Z,-80.35
2022-09-22T04:53:33.401Z,-80.06
2022-09-22T04:54:33.503Z,-80.00
2022-09-22T04:55:33.397Z,-79.96
2022-09-22T04:56:33.383Z,-80.04
2022-09-22T04:57:33.346Z,-79.98
2022-09-22T04:58:33.436Z,-79.87
2022-09-22T04:59:36.343Z,-79.93
2022-09-22T05:00:36.342Z,-79.66
2022-09-22T05:01:33.449Z,-78.42
2022-09-22T05:02:33.446Z,-78.44
2022-09-22T05:03:33.379Z,-78.46
2022-09-22T05:04:33.269Z,-78.42
2022-09-22T05:05:33.418Z,-78.44
2022-09-22T05:06:33.521Z,-78.34
2022-09-22T05:07:33.338Z,-78.32
2022-09-22T05:08:33.314Z,-78.37
2022-09-22T05:09:33.398Z,-78.32
2022-09-22T05:10:33.287Z,-78.38
2022-09-22T05:11:33.449Z,-78.34
2022-09-22T05:12:33.137Z,-78.36
2022-09-22T05:13:33.187Z,-78.27
2022-09-22T05:14:33.245Z,-78.25
2022-09-22T05:15:33.313Z,-78.25
2022-09-22T05:16:33.245Z,-78.28
2022-09-22T05:17:33.160Z,-78.21
2022-09-22T05:18:33.130Z,-78.30
2022-09-22T05:19:36.077Z,-78.34
2022-09-22T05:20:36.157Z,-78.30
2022-09-22T05:21:33.085Z,-78.40
2022-09-22T05:22:37.681Z,-79.69
2022-09-22T05:23:35.688Z,-79.74
2022-09-22T05:24:33.208Z,-79.87
2022-09-22T05:25:33.166Z,-79.82
2022-09-22T05:26:40.009Z,-80.10
2022-09-22T05:27:32.915Z,-80.08
2022-09-22T05:28:32.904Z,-80.12
2022-09-22T05:29:32.897Z,-80.23
2022-09-22T05:30:32.877Z,-80.24
2022-09-22T05:31:32.915Z,-80.34
2022-09-22T05:32:32.888Z,-80.42
2022-09-22T05:33:32.837Z,-80.49
2022-09-22T05:34:32.828Z,-80.55
2022-09-22T05:35:36.706Z,-81.88
2022-09-22T05:36:32.799Z,-81.99
2022-09-22T05:37:32.790Z,-82.11
2022-09-22T05:38:32.847Z,-82.26
2022-09-22T05:39:35.758Z,-82.33
2022-09-22T05:40:35.799Z,-82.35
2022-09-22T05:41:32.731Z,-82.63
2022-09-22T05:42:32.725Z,-84.11
2022-09-22T05:43:32.700Z,-84.38
2022-09-22T05:44:32.719Z,-84.50
2022-09-22T05:45:32.795Z,-84.77
2022-09-22T05:46:32.673Z,-85.00
2022-09-22T05:47:32.650Z,-86.56
2022-09-22T05:48:32.713Z,-87.00
2022-09-22T05:49:32.627Z,-87.27
2022-09-22T05:50:32.611Z,-87.46
2022-09-22T05:51:32.600Z,-88.94
2022-09-22T05:52:32.592Z,-89.15
2022-09-22T05:53:32.577Z,-89.60
2022-09-22T05:54:32.593Z,-89.69
2022-09-22T05:55:32.551Z,-89.84
2022-09-22T05:56:32.552Z,-89.96
2022-09-22T05:57:32.522Z,-90.01
2022-09-22T05:58:32.510Z,-91.46
2022-09-22T05:59:35.524Z,-91.62
2022-09-22T06:00:35.500Z,-91.69
2022-09-22T06:01:32.535Z,-91.91
2022-09-22T06:02:32.496Z,-92.06
2022-09-22T06:03:32.451Z,-92.28
2022-09-22T06:04:32.550Z,-92.45
2022-09-22T06:05:33.433Z,-92.61
2022-09-22T06:06:32.448Z,-92.66
2022-09-22T06:07:32.395Z,-94.06
2022-09-22T06:08:32.399Z,-94.18
2022-09-22T06:09:32.365Z,-94.04
2022-09-22T06:10:32.408Z,-94.29
2022-09-22T06:11:32.343Z,-94.30
2022-09-22T06:12:32.333Z,-94.50
2022-09-22T06:13:32.326Z,-94.69
2022-09-22T06:14:32.310Z,-94.77
2022-09-22T06:15:32.296Z,-94.94
2022-09-22T06:16:32.337Z,-95.01
2022-09-22T06:17:32.296Z,-95.13
2022-09-22T06:18:32.246Z,-95.40
2022-09-22T06:19:35.237Z,-95.56
2022-09-22T06:20:35.237Z,-96.98
2022-09-22T06:21:32.235Z,-97.13
2022-09-22T06:22:32.213Z,-97.54
2022-09-22T06:23:32.178Z,-97.75
2022-09-22T06:24:32.174Z,-97.97
2022-09-22T06:25:32.162Z,-98.33
2022-09-22T06:26:32.166Z,-98.61
2022-09-22T06:27:32.125Z,-99.01
2022-09-22T06:28:32.118Z,-100.46
2022-09-22T06:29:32.096Z,-100.85
2022-09-22T06:30:32.087Z,-101.02
2022-09-22T06:31:32.162Z,-101.23
2022-09-22T06:32:32.063Z,-101.74
2022-09-22T06:33:32.042Z,-102.33
2022-09-22T06:34:32.032Z,-102.67
2022-09-22T06:35:32.008Z,-104.22
2022-09-22T06:36:31.998Z,-104.56
2022-09-22T06:37:32.018Z,-104.78
2022-09-22T06:38:31.997Z,-105.19
2022-09-22T06:39:34.962Z,-105.13
2022-09-22T06:40:35.016Z,-105.21
2022-09-22T06:41:31.958Z,-105.44
2022-09-22T06:42:31.921Z,-105.77
2022-09-22T06:43:31.899Z,-106.05
2022-09-22T06:44:31.891Z,-106.31
2022-09-22T06:45:31.997Z,-106.59
2022-09-22T06:46:31.889Z,-106.58
2022-09-22T06:47:31.841Z,-106.40
2022-09-22T06:48:31.839Z,-106.98
2022-09-22T06:49:31.862Z,-106.96
2022-09-22T06:50:31.912Z,-107.17
2022-09-22T06:51:31.791Z,-107.46
2022-09-22T06:52:32.523Z,-107.69
2022-09-22T06:53:31.762Z,-107.98
2022-09-22T06:54:31.754Z,-108.39
2022-09-22T06:55:31.763Z,-108.66
2022-09-22T06:56:34.784Z,-108.79
2022-09-22T06:57:31.704Z,-108.96
2022-09-22T06:58:46.994Z,-109.36
2022-09-22T06:59:35.691Z,-109.38
2022-09-22T07:00:34.772Z,-109.56
2022-09-22T07:01:31.776Z,-109.79
2022-09-22T07:02:31.673Z,-110.24
2022-09-22T07:03:31.625Z,-110.05
2022-09-22T07:04:31.616Z,-110.46
2022-09-22T07:05:31.604Z,-110.13
2022-09-22T07:06:31.601Z,-110.52
2022-09-22T07:07:31.601Z,-110.72
2022-09-22T07:08:31.567Z,-111.44
2022-09-22T07:09:31.557Z,-111.77
2022-09-22T07:10:31.544Z,-111.99
2022-09-22T07:11:34.219Z,-112.17
2022-09-22T07:12:31.516Z,-112.14
2022-09-22T07:13:31.497Z,-112.38
2022-09-22T07:14:31.496Z,-112.70
2022-09-22T07:15:31.468Z,-113.09
2022-09-22T07:16:31.521Z,-113.39
2022-09-22T07:17:31.448Z,-113.54
2022-09-22T07:18:31.428Z,-113.65
2022-09-22T07:19:34.409Z,-113.94
2022-09-22T07:20:34.417Z,-114.01
2022-09-22T07:21:31.440Z,-114.32
2022-09-22T07:22:31.386Z,-114.26
2022-09-22T07:23:31.360Z,-114.33
2022-09-22T07:24:31.362Z,-114.89
2022-09-22T07:25:31.330Z,-115.12
2022-09-22T07:26:31.330Z,-115.53
2022-09-22T07:27:31.342Z,-115.77
2022-09-22T07:28:31.301Z,-115.92
2022-09-22T07:29:31.313Z,-116.37
2022-09-22T07:30:31.271Z,-116.50
2022-09-22T07:31:31.365Z,-116.43
2022-09-22T07:32:31.242Z,-116.71
2022-09-22T07:33:31.232Z,-116.84
2022-09-22T07:34:31.273Z,-117.32
2022-09-22T07:35:31.242Z,-117.29
2022-09-22T07:36:31.195Z,-117.44
2022-09-22T07:37:31.175Z,-117.66
2022-09-22T07:38:31.163Z,-117.93
2022-09-22T07:39:34.145Z,-118.50
2022-09-22T07:40:34.251Z,-118.69
2022-09-22T07:41:31.122Z,-118.59
2022-09-22T07:42:31.105Z,-118.98
2022-09-22T07:43:31.096Z,-119.40
2022-09-22T07:44:31.083Z,-119.54
2022-09-22T07:45:31.126Z,-119.63
2022-09-22T07:46:31.114Z,-119.87
2022-09-22T07:47:31.046Z,-119.61
2022-09-22T07:48:31.026Z,-120.00
2022-09-22T07:49:31.017Z,-120.49
2022-09-22T07:50:30.997Z,-121.03
2022-09-22T07:51:30.988Z,-121.30
2022-09-22T07:52:30.997Z,-121.36
2022-09-22T07:53:30.965Z,-121.86
2022-09-22T07:54:30.949Z,-122.55
2022-09-22T07:55:30.948Z,-122.85
2022-09-22T07:56:30.952Z,-122.96
2022-09-22T07:57:30.908Z,-123.43
2022-09-22T07:58:30.900Z,-123.66
2022-09-22T07:59:33.907Z,-123.85
2022-09-22T08:00:33.985Z,-123.77
2022-09-22T08:01:30.850Z,-123.70
2022-09-22T08:02:30.838Z,-124.13
2022-09-22T08:03:30.829Z,-124.21
2022-09-22T08:04:30.831Z,-124.70
2022-09-22T08:05:31.776Z,-125.22
2022-09-22T08:06:30.833Z,-125.13
2022-09-22T08:07:30.772Z,-125.68
2022-09-22T08:08:30.751Z,-126.03
2022-09-22T08:09:30.744Z,-126.99
2022-09-22T08:10:30.724Z,-127.24
2022-09-22T08:11:30.740Z,-127.24
2022-09-22T08:12:30.726Z,-127.24
2022-09-22T08:13:30.691Z,-128.46
2022-09-22T08:14:30.673Z,-128.46
2022-09-22T08:15:30.654Z,-128.46
2022-09-22T08:16:30.726Z,-128.46
2022-09-22T08:17:30.655Z,-129.68
2022-09-22T08:18:30.617Z,-129.68
2022-09-22T08:19:33.603Z,-129.68
2022-09-22T08:20:33.607Z,-129.68
2022-09-22T08:21:30.575Z,-130.90
2022-09-22T08:22:30.585Z,-130.90
2022-09-22T08:23:30.555Z,-130.90
2022-09-22T08:24:30.539Z,-132.12
2022-09-22T08:25:30.611Z,-132.12
2022-09-22T08:26:30.546Z,-132.12
2022-09-22T08:27:30.537Z,-132.12
2022-09-22T08:28:30.481Z,-132.12
2022-09-22T08:29:30.495Z,-133.34
2022-09-22T08:30:30.472Z,-133.34
2022-09-22T08:31:30.495Z,-133.34
2022-09-22T08:32:30.452Z,-133.34
2022-09-22T08:33:30.417Z,-133.34
2022-09-22T08:34:30.398Z,-134.56
2022-09-22T08:35:30.388Z,-134.56
2022-09-22T08:36:30.384Z,-134.56
2022-09-22T08:37:30.388Z,-134.56
2022-09-22T08:38:30.339Z,-135.77
2022-09-22T08:39:33.359Z,-135.77
2022-09-22T08:40:33.399Z,-135.77
2022-09-22T08:41:30.310Z,-135.77
2022-09-22T08:42:30.317Z,-136.99
2022-09-22T08:43:30.281Z,-136.99
2022-09-22T08:44:30.261Z,-136.99
2022-09-22T08:45:30.253Z,-136.99
2022-09-22T08:46:30.285Z,-138.21
2022-09-22T08:47:30.265Z,-138.21
2022-09-22T08:48:30.213Z,-138.21
2022-09-22T08:49:30.265Z,-138.21
2022-09-22T08:50:30.267Z,-139.43
2022-09-22T08:51:30.227Z,-139.43
2022-09-22T08:52:30.153Z,-139.43
2022-09-22T08:53:30.144Z,-139.43
2022-09-22T08:54:30.137Z,-140.65
2022-09-22T08:55:30.145Z,-140.65
2022-09-22T08:56:30.125Z,-140.65
2022-09-22T08:57:30.149Z,-140.65
2022-09-22T08:58:30.090Z,-140.65
2022-09-22T08:59:33.065Z,-140.65
2022-09-22T09:00:33.067Z,-140.65
2022-09-22T09:01:30.158Z,-140.65
2022-09-22T09:02:30.063Z,-141.87
2022-09-22T09:03:30.014Z,-141.87
2022-09-22T09:04:30.004Z,-141.87
2022-09-22T09:05:29.987Z,-141.87
2022-09-22T09:06:29.977Z,-143.08
2022-09-22T09:07:30.016Z,-143.08
2022-09-22T09:08:29.938Z,-143.08
2022-09-22T09:09:29.939Z,-143.08
2022-09-22T09:10:30.033Z,-143.08
2022-09-22T09:11:29.910Z,-143.08
2022-09-22T09:12:29.881Z,-144.30
2022-09-22T09:13:29.912Z,-144.30
2022-09-22T09:14:29.861Z,-144.30
2022-09-22T09:15:29.847Z,-144.30
2022-09-22T09:16:31.898Z,-144.30
2022-09-22T09:17:29.820Z,-145.52
2022-09-22T09:18:29.801Z,-145.52
2022-09-22T09:19:32.815Z,-145.52
2022-09-22T09:20:32.783Z,-145.52
2022-09-22T09:21:29.761Z,-145.52
2022-09-22T09:22:29.742Z,-145.52
2022-09-22T09:25:22.099Z,-145.52
2022-09-22T09:25:30.704Z,-146.74
2022-09-22T09:26:29.704Z,-146.74
2022-09-22T09:27:29.685Z,-146.74
2022-09-22T09:28:29.664Z,-146.74
2022-09-22T09:29:29.646Z,-146.74
2022-09-22T09:30:29.659Z,-146.74
2022-09-22T09:31:29.649Z,-146.74
2022-09-22T09:32:29.605Z,-147.96
2022-09-22T09:33:29.595Z,-146.74
2022-09-22T09:34:29.576Z,-147.96
2022-09-22T09:35:29.644Z,-147.96
2022-09-22T09:36:29.547Z,-147.96
2022-09-22T09:37:29.539Z,-147.96
2022-09-22T09:38:29.518Z,-149.17
2022-09-22T09:39:32.508Z,-149.17
2022-09-22T09:40:32.584Z,-149.17
2022-09-22T09:41:29.487Z,-149.17
2022-09-22T09:42:29.590Z,-149.17
2022-09-22T09:43:29.459Z,-149.17
2022-09-22T09:44:29.441Z,-149.17
2022-09-22T09:45:29.480Z,-150.39
2022-09-22T09:46:29.436Z,-150.39
2022-09-22T09:47:29.405Z,-149.17
2022-09-22T09:48:29.381Z,-149.17
2022-09-22T09:49:29.371Z,-149.17
2022-09-22T09:50:29.352Z,-150.39
2022-09-22T09:51:29.373Z,-150.39
2022-09-22T09:52:29.332Z,-150.39
2022-09-22T09:53:29.344Z,-150.39
2022-09-22T09:54:29.314Z,-150.39
2022-09-22T09:55:29.568Z,-150.39
2022-09-22T09:56:29.354Z,-150.39
2022-09-22T09:57:29.305Z,-151.61
2022-09-22T09:58:29.257Z,-151.61
2022-09-22T09:59:32.235Z,-151.61
2022-09-22T10:00:32.547Z,-151.61
2022-09-22T10:01:29.261Z,-151.61
2022-09-22T10:02:29.344Z,-151.61
2022-09-22T10:03:29.293Z,-151.61
2022-09-22T10:04:29.218Z,-151.61
2022-09-22T10:05:29.277Z,-151.61
2022-09-22T10:06:29.209Z,-151.61
2022-09-22T10:07:29.129Z,-151.61
2022-09-22T10:08:29.109Z,-152.83
2022-09-22T10:09:29.140Z,-152.83
2022-09-22T10:10:29.193Z,-152.83
2022-09-22T10:11:29.161Z,-152.83
2022-09-22T10:12:29.107Z,-152.83
2022-09-22T10:13:29.110Z,-152.83
2022-09-22T10:14:29.061Z,-152.83
2022-09-22T10:15:29.136Z,-152.83
2022-09-22T10:16:29.007Z,-154.04
2022-09-22T10:17:29.101Z,-154.04
2022-09-22T10:18:29.079Z,-154.04
2022-09-22T10:19:32.041Z,-154.04
2022-09-22T10:20:31.978Z,-154.04
2022-09-22T10:21:28.953Z,-154.04
2022-09-22T10:22:28.923Z,-154.04
2022-09-22T10:23:29.148Z,-154.04
2022-09-22T10:24:28.904Z,-154.04
2022-09-22T10:25:28.903Z,-154.04
2022-09-22T10:26:28.876Z,-154.04
2022-09-22T10:27:28.854Z,-155.26
2022-09-22T10:28:28.846Z,-155.26
2022-09-22T10:29:28.864Z,-155.26
2022-09-22T10:30:28.867Z,-154.04
2022-09-22T10:31:28.839Z,-155.26
2022-09-22T10:32:28.786Z,-155.26
2022-09-22T10:33:28.777Z,-154.04
2022-09-22T10:34:28.762Z,-154.04
2022-09-22T10:35:28.754Z,-154.04
2022-09-22T10:36:28.783Z,-154.04
2022-09-22T10:37:28.730Z,-155.26
2022-09-22T10:38:28.756Z,-155.26
2022-09-22T10:39:31.701Z,-155.26
2022-09-22T10:40:31.761Z,-155.26
2022-09-22T10:41:28.669Z,-155.26
2022-09-22T10:42:28.713Z,-155.26
2022-09-22T10:43:28.641Z,-155.26
2022-09-22T10:44:38.593Z,-155.26
2022-09-22T10:45:29.613Z,-156.48
2022-09-22T10:46:28.743Z,-156.48
2022-09-22T10:47:28.594Z,-155.26
2022-09-22T10:48:28.595Z,-155.26
2022-09-22T10:49:28.554Z,-156.48
2022-09-22T10:50:28.552Z,-156.48
2022-09-22T10:51:28.533Z,-156.48
2022-09-22T10:52:28.513Z,-156.48
2022-09-22T10:53:28.524Z,-155.26
2022-09-22T10:54:28.515Z,-155.26
2022-09-22T10:55:28.486Z,-155.26
2022-09-22T10:56:28.456Z,-155.26
2022-09-22T10:57:28.460Z,-155.26
2022-09-22T10:58:28.455Z,-155.26
2022-09-22T10:59:31.455Z,-155.26
2022-09-22T11:00:33.052Z,-155.26
2022-09-22T11:01:29.428Z,-155.26
2022-09-22T11:02:28.413Z,-155.26
2022-09-22T11:03:28.406Z,-156.48
2022-09-22T11:04:28.492Z,-156.48
2022-09-22T11:05:28.341Z,-156.48
2022-09-22T11:06:28.323Z,-156.48
2022-09-22T11:07:28.310Z,-157.70
2022-09-22T11:08:28.331Z,-157.70
2022-09-22T11:09:28.319Z,-157.70
2022-09-22T11:10:28.329Z,-157.70
2022-09-22T11:11:28.265Z,-158.91
2022-09-22T11:12:28.243Z,-158.91
2022-09-22T11:13:28.231Z,-158.91
2022-09-22T11:14:28.213Z,-158.91
2022-09-22T11:15:28.221Z,-158.91
2022-09-22T11:16:28.242Z,-158.91
2022-09-22T11:17:28.188Z,-160.13
2022-09-22T11:18:28.165Z,-160.13
2022-09-22T11:19:31.144Z,-160.13
2022-09-22T11:20:31.152Z,-160.13
2022-09-22T11:21:28.125Z,-160.13
2022-09-22T11:22:28.165Z,-160.13
2022-09-22T11:23:28.096Z,-160.13
2022-09-22T11:24:28.076Z,-160.13
2022-09-22T11:25:28.067Z,-160.13
2022-09-22T11:26:35.685Z,-161.35
2022-09-22T11:27:28.082Z,-161.35
2022-09-22T11:28:28.105Z,-161.35
2022-09-22T11:29:28.053Z,-160.13
2022-09-22T11:30:28.039Z,-160.13
2022-09-22T11:31:28.011Z,-160.13
2022-09-22T11:32:28.005Z,-160.13
2022-09-22T11:33:28.006Z,-160.13
2022-09-22T11:34:28.202Z,-160.13
2022-09-22T11:35:27.964Z,-160.13
2022-09-22T11:36:27.938Z,-160.13
2022-09-22T11:37:27.929Z,-160.13
2022-09-22T11:38:27.907Z,-160.13
2022-09-22T11:39:30.924Z,-160.13
2022-09-22T11:40:30.941Z,-160.13
2022-09-22T11:41:28.074Z,-160.13
2022-09-22T11:42:27.866Z,-160.13
2022-09-22T11:43:27.833Z,-160.13
2022-09-22T11:44:27.824Z,-158.91
2022-09-22T11:45:27.808Z,-158.91
2022-09-22T11:46:27.862Z,-158.91
2022-09-22T11:47:27.965Z,-158.91
2022-09-22T11:48:27.766Z,-158.91
2022-09-22T11:49:27.747Z,-157.70
2022-09-22T11:50:27.783Z,-158.91
2022-09-22T11:51:27.777Z,-158.91
2022-09-22T11:52:27.705Z,-158.91
2022-09-22T11:53:27.735Z,-160.13
2022-09-22T11:54:27.747Z,-160.13
2022-09-22T11:55:27.750Z,-160.13
2022-09-22T11:56:27.695Z,-160.13
2022-09-22T11:57:27.636Z,-160.13
2022-09-22T11:58:27.654Z,-158.91
2022-09-22T11:59:30.607Z,-158.91
2022-09-22T12:00:30.668Z,-158.91
2022-09-22T12:01:27.604Z,-158.91
2022-09-22T12:02:27.705Z,-158.91
2022-09-22T12:03:27.668Z,-158.91
2022-09-22T12:04:27.562Z,-158.91
2022-09-22T12:05:27.531Z,-158.91
2022-09-22T12:06:27.571Z,-158.91
2022-09-22T12:07:27.501Z,-158.91
2022-09-22T12:08:27.500Z,-158.91
2022-09-22T12:09:28.806Z,-158.91
2022-09-22T12:10:27.572Z,-158.91
2022-09-22T12:11:27.453Z,-158.91
2022-09-22T12:12:27.513Z,-158.91
2022-09-22T12:13:27.425Z,-158.91
2022-09-22T12:14:27.414Z,-158.91
2022-09-22T12:15:27.397Z,-160.13
2022-09-22T12:16:27.385Z,-160.13
2022-09-22T12:17:27.387Z,-160.13